Time;durP1;ratioP1;P1;durP2;ratioP2;P2;SDS_P1;SDS_P2;PMS_P1;PMS_P2;Temp;Humidity;BMP_temperature;BMP_pressure;BME280_temperature;BME280_humidity;BME280_pressure;Samples;Min_cycle;Max_cycle;Signal;HPM_P1;HPM_P2
2023/11/10 00:00:09;;;;;;;1.65;1.08;;;;;;;4.55;100.00;99552.66;4996216;28;20473;-86
2023/11/10 00:02:36;;;;;;;3.60;1.10;;;;;;;4.57;100.00;99556.84;4996199;28;20046;-79
2023/11/10 00:05:01;;;;;;;4.60;1.25;;;;;;;4.58;100.00;99562.94;4996377;28;20027;-81
2023/11/10 00:07:27;;;;;;;3.83;1.13;;;;;;;4.59;100.00;99567.25;4995947;28;20038;-82
2023/11/10 00:09:52;;;;;;;2.90;1.02;;;;;;;4.60;100.00;99568.94;4996303;28;20026;-80
2023/11/10 00:12:17;;;;;;;1.70;0.80;;;;;;;4.62;100.00;99568.78;4996083;28;20417;-80
2023/11/10 00:14:45;;;;;;;2.10;0.90;;;;;;;4.60;100.00;99563.66;4996436;28;20030;-79
2023/11/10 00:17:11;;;;;;;1.10;0.60;;;;;;;4.59;100.00;99567.25;4995823;28;20455;-79
2023/11/10 00:19:43;;;;;;;3.22;0.55;;;;;;;4.58;100.00;99578.75;4996340;28;20026;-79
2023/11/10 00:22:09;;;;;;;2.83;0.60;;;;;;;4.57;100.00;99567.38;4996005;28;20027;-86
2023/11/10 00:24:41;;;;;;;2.33;0.60;;;;;;;4.61;100.00;99572.38;4995684;28;20033;-79
2023/11/10 00:27:07;;;;;;;2.22;0.50;;;;;;;4.60;100.00;99571.56;4996063;28;20022;-79
2023/11/10 00:29:33;;;;;;;1.55;0.52;;;;;;;4.60;100.00;99558.38;4995763;28;20053;-78
2023/11/10 00:31:59;;;;;;;5.95;0.60;;;;;;;4.59;100.00;99559.34;4995848;28;20191;-79
2023/11/10 00:34:24;;;;;;;7.32;0.68;;;;;;;4.61;100.00;99553.94;4995646;28;20427;-79
2023/11/10 00:36:50;;;;;;;0.80;0.60;;;;;;;4.60;100.00;99553.13;4995253;28;20033;-79
2023/11/10 00:39:17;;;;;;;3.03;0.60;;;;;;;4.61;100.00;99556.56;4995537;28;20035;-79
2023/11/10 00:41:44;;;;;;;1.67;0.77;;;;;;;4.63;100.00;99554.63;4995526;28;20371;-80
2023/11/10 00:44:10;;;;;;;1.85;0.68;;;;;;;4.65;100.00;99540.38;4994886;28;20034;-81
2023/11/10 00:46:36;;;;;;;0.98;0.32;;;;;;;4.68;100.00;99531.38;4995230;28;20481;-81
2023/11/10 00:49:01;;;;;;;4.03;0.93;;;;;;;4.72;100.00;99532.78;4995655;28;20034;-82
2023/11/10 00:51:28;;;;;;;3.72;0.60;;;;;;;4.72;100.00;99532.78;4995299;28;20085;-80
2023/11/10 00:53:54;;;;;;;2.03;0.50;;;;;;;4.72;100.00;99536.25;4995243;28;20486;-79
2023/11/10 00:56:19;;;;;;;1.25;0.70;;;;;;;4.70;100.00;99538.19;4994919;28;20030;-79
2023/11/10 00:58:45;;;;;;;2.35;0.60;;;;;;;4.71;100.00;99536.38;4993866;28;20034;-80
2023/11/10 01:01:10;;;;;;;2.92;0.65;;;;;;;4.71;100.00;99537.19;4994170;28;20096;-79
2023/11/10 01:03:35;;;;;;;2.42;0.85;;;;;;;4.73;100.00;99537.91;4995376;28;20124;-81
2023/11/10 01:06:01;;;;;;;3.67;0.77;;;;;;;4.74;100.00;99534.28;4994962;28;20030;-79
2023/11/10 01:08:26;;;;;;;2.53;0.75;;;;;;;4.75;100.00;99532.50;4995044;28;20026;-78
2023/11/10 01:10:52;;;;;;;1.73;0.80;;;;;;;4.74;100.00;99529.03;4995454;28;20080;-79
2023/11/10 01:13:17;;;;;;;2.33;0.90;;;;;;;4.73;100.00;99524.75;4993847;28;20081;-78
2023/11/10 01:15:42;;;;;;;6.25;0.90;;;;;;;4.73;100.00;99522.09;4994470;28;20481;-78
2023/11/10 01:18:08;;;;;;;2.72;1.10;;;;;;;4.72;100.00;99519.59;4994899;28;20441;-79
2023/11/10 01:20:33;;;;;;;1.52;0.90;;;;;;;4.75;100.00;99514.06;4995305;28;20033;-79
2023/11/10 01:22:59;;;;;;;2.45;1.00;;;;;;;4.75;100.00;99519.34;4995431;28;20061;-80
2023/11/10 01:25:24;;;;;;;5.10;1.48;;;;;;;4.73;100.00;99508.94;4994840;28;20060;-80
2023/11/10 01:27:50;;;;;;;3.58;1.30;;;;;;;4.73;100.00;99510.72;4993782;28;20056;-80
2023/11/10 01:30:16;;;;;;;3.92;1.63;;;;;;;4.71;100.00;99518.75;4993259;28;20108;-79
2023/11/10 01:32:42;;;;;;;2.53;1.17;;;;;;;4.67;100.00;99516.53;4993245;28;20419;-81
2023/11/10 01:35:07;;;;;;;4.05;1.38;;;;;;;4.65;100.00;99515.84;4993249;28;20121;-81
2023/11/10 01:37:33;;;;;;;3.65;1.27;;;;;;;4.64;100.00;99512.34;4992914;28;20042;-82
2023/11/10 01:39:58;;;;;;;4.63;1.38;;;;;;;4.63;100.00;99500.16;4993233;28;20037;-78
2023/11/10 01:42:23;;;;;;;4.63;1.50;;;;;;;4.66;100.00;99506.94;4992713;28;20172;-78
2023/11/10 01:44:49;;;;;;;1.48;1.30;;;;;;;4.63;100.00;99515.97;4993281;28;20026;-78
2023/11/10 01:47:14;;;;;;;1.77;1.20;;;;;;;4.60;100.00;99510.97;4993030;28;20100;-82
2023/11/10 01:49:41;;;;;;;3.97;1.30;;;;;;;4.56;100.00;99505.09;4992678;28;20034;-79
2023/11/10 01:52:07;;;;;;;2.63;1.30;;;;;;;4.58;100.00;99508.47;4992696;28;20041;-80
2023/11/10 01:54:35;;;;;;;2.75;0.95;;;;;;;4.62;100.00;99510.84;4992695;28;20041;-80
2023/11/10 01:57:04;;;;;;;1.98;0.90;;;;;;;4.60;100.00;99516.22;4992801;28;20030;-80
2023/11/10 01:59:31;;;;;;;3.83;1.77;;;;;;;4.57;100.00;99508.59;4992654;28;20109;-77
2023/11/10 02:01:57;;;;;;;3.72;1.20;;;;;;;4.53;100.00;99507.19;4992305;28;20114;-81
2023/11/10 02:04:23;;;;;;;2.28;1.35;;;;;;;4.53;100.00;99513.28;4992590;28;20353;-80
2023/11/10 02:06:51;;;;;;;2.28;0.98;;;;;;;4.52;100.00;99502.88;4992562;28;20188;-79
2023/11/10 02:09:17;;;;;;;2.47;1.08;;;;;;;4.50;100.00;99507.47;4992101;28;20034;-78
2023/11/10 02:11:43;;;;;;;4.15;0.90;;;;;;;4.52;100.00;99505.50;4991736;28;20461;-76
2023/11/10 02:14:10;;;;;;;6.10;1.42;;;;;;;4.59;100.00;99501.38;4991441;28;20037;-79
2023/11/10 02:16:36;;;;;;;5.75;1.10;;;;;;;4.63;100.00;99494.03;4992070;28;20038;-80
2023/11/10 02:19:03;;;;;;;3.03;1.23;;;;;;;4.68;100.00;99512.94;4992453;28;20485;-82
2023/11/10 02:21:28;;;;;;;3.95;1.10;;;;;;;4.64;100.00;99504.44;4992388;28;20038;-80
2023/11/10 02:24:06;;;;;;;2.63;1.20;;;;;;;4.61;100.00;99499.44;4992164;28;20035;-77
2023/11/10 02:26:32;;;;;;;4.38;1.30;;;;;;;4.56;100.00;99502.47;4992609;28;20080;-78
2023/11/10 02:28:57;;;;;;;5.88;1.63;;;;;;;4.51;100.00;99494.16;4991533;28;20463;-80
2023/11/10 02:31:22;;;;;;;3.70;1.40;;;;;;;4.50;100.00;99500.38;4992171;28;20498;-80
2023/11/10 02:33:48;;;;;;;4.93;1.60;;;;;;;4.52;100.00;99503.72;4990760;28;20033;-87
2023/11/10 02:36:14;;;;;;;5.00;1.48;;;;;;;4.53;100.00;99505.38;4991945;28;20431;-78
2023/11/10 02:38:42;;;;;;;6.80;1.63;;;;;;;4.54;100.00;99503.59;4991915;28;20200;-79
2023/11/10 02:41:08;;;;;;;7.13;1.92;;;;;;;4.53;100.00;99510.66;4991972;28;20026;-81
2023/11/10 02:43:34;;;;;;;6.00;1.77;;;;;;;4.57;100.00;99511.22;4990131;28;20037;-79
2023/11/10 02:46:00;;;;;;;7.93;2.00;;;;;;;4.62;100.00;99516.91;4991972;28;20030;-82
2023/11/10 02:48:25;;;;;;;11.23;2.53;;;;;;;4.73;100.00;99522.09;4990070;28;20042;-80
2023/11/10 02:50:51;;;;;;;5.88;2.00;;;;;;;4.74;100.00;99521.13;4991902;28;20034;-80
2023/11/10 02:53:17;;;;;;;9.57;2.83;;;;;;;4.80;100.00;99524.19;4991683;28;20034;-79
2023/11/10 02:55:43;;;;;;;11.88;3.20;;;;;;;4.83;100.00;99532.66;4991128;28;20354;-79
2023/11/10 02:58:08;;;;;;;10.75;3.22;;;;;;;4.88;100.00;99525.19;4989619;28;20079;-78
2023/11/10 03:00:34;;;;;;;7.22;3.03;;;;;;;4.90;100.00;99525.06;4990761;28;20132;-79
2023/11/10 03:02:59;;;;;;;13.30;3.55;;;;;;;4.92;100.00;99516.03;4991074;28;20050;-79
2023/11/10 03:05:24;;;;;;;8.55;3.00;;;;;;;4.95;100.00;99509.66;4991310;28;20109;-80
2023/11/10 03:07:50;;;;;;;12.40;3.53;;;;;;;5.00;100.00;99520.66;4990925;28;20065;-79
2023/11/10 03:10:16;;;;;;;11.25;3.17;;;;;;;5.06;100.00;99512.19;4991410;28;20445;-81
2023/11/10 03:12:42;;;;;;;5.43;2.88;;;;;;;5.10;100.00;99521.47;4991170;28;20481;-79
2023/11/10 03:15:08;;;;;;;8.00;2.80;;;;;;;5.12;100.00;99506.38;4991401;28;20176;-79
2023/11/10 03:17:34;;;;;;;7.40;2.38;;;;;;;5.15;100.00;99518.47;4991366;28;20168;-78
2023/11/10 03:19:59;;;;;;;5.82;2.80;;;;;;;5.18;100.00;99512.91;4990075;28;20038;-80
2023/11/10 03:22:25;;;;;;;6.68;2.70;;;;;;;5.18;100.00;99515.56;4991376;28;20208;-80
2023/11/10 03:24:50;;;;;;;4.50;2.25;;;;;;;5.17;100.00;99507.78;4992509;28;20034;-78
2023/11/10 03:27:16;;;;;;;6.55;2.30;;;;;;;5.14;100.00;99513.31;4995382;28;20026;-78
2023/11/10 03:29:42;;;;;;;8.93;2.20;;;;;;;5.05;100.00;99509.69;4995261;28;20614;-78
2023/11/10 03:32:08;;;;;;;13.60;2.28;;;;;;;4.97;100.00;99514.81;4993554;28;20117;-80
2023/11/10 03:34:41;;;;;;;12.68;1.98;;;;;;;4.91;100.00;99513.53;4994800;28;20374;-78
2023/11/10 03:37:14;;;;;;;3.03;1.70;;;;;;;4.85;100.00;99504.38;4995763;28;20029;-80
2023/11/10 03:39:39;;;;;;;5.97;1.98;;;;;;;4.83;100.00;99514.22;4995245;28;20026;-79
2023/11/10 03:42:05;;;;;;;10.00;2.20;;;;;;;4.87;100.00;99509.53;4993859;28;20431;-78
2023/11/10 03:44:31;;;;;;;7.85;1.80;;;;;;;4.92;100.00;99516.03;4995526;28;20403;-79
2023/11/10 03:46:58;;;;;;;4.88;1.80;;;;;;;4.95;100.00;99512.31;4995063;28;20040;-80
2023/11/10 03:49:24;;;;;;;7.13;1.80;;;;;;;4.95;100.00;99514.94;4995488;28;20033;-79
2023/11/10 03:51:50;;;;;;;5.60;1.83;;;;;;;4.89;100.00;99513.66;4995486;28;20330;-78
2023/11/10 03:54:16;;;;;;;9.05;2.13;;;;;;;4.84;100.00;99510.63;4993567;28;20144;-79
2023/11/10 03:56:41;;;;;;;9.77;1.90;;;;;;;4.81;100.00;99507.41;4995482;28;20137;-79
2023/11/10 03:59:08;;;;;;;6.57;1.85;;;;;;;4.75;100.00;99506.16;4993606;28;20060;-79
2023/11/10 04:01:34;;;;;;;11.23;1.98;;;;;;;4.74;100.00;99507.13;4993595;28;20277;-80
2023/11/10 04:04:00;;;;;;;5.38;2.00;;;;;;;4.76;100.00;99513.06;4994459;28;20038;-79
2023/11/10 04:06:26;;;;;;;5.88;1.85;;;;;;;4.86;100.00;99515.75;4995106;28;20447;-79
2023/11/10 04:08:51;;;;;;;5.47;1.83;;;;;;;4.95;100.00;99512.31;4994608;28;20041;-80
2023/11/10 04:11:16;;;;;;;8.75;2.35;;;;;;;4.99;100.00;99526.88;4977156;28;20031;-79
2023/11/10 04:13:42;;;;;;;8.55;2.13;;;;;;;5.01;100.00;99530.22;4994524;28;20058;-82
2023/11/10 04:16:17;;;;;;;9.65;2.00;;;;;;;4.99;100.00;99515.53;4994604;28;20128;-81
2023/11/10 04:18:45;;;;;;;10.45;2.28;;;;;;;4.92;100.00;99523.94;4994583;28;20078;-79
2023/11/10 04:21:11;;;;;;;6.53;2.00;;;;;;;4.91;100.00;99527.56;4993223;28;20029;-82
2023/11/10 04:23:36;;;;;;;10.10;2.55;;;;;;;4.92;100.00;99534.50;4994339;28;20026;-81
2023/11/10 04:26:05;;;;;;;12.95;2.72;;;;;;;4.90;100.00;99522.44;4993017;28;20030;-84
2023/11/10 04:28:31;;;;;;;10.20;2.05;;;;;;;4.86;100.00;99515.75;4994391;28;20340;-83
2023/11/10 04:30:57;;;;;;;7.88;1.80;;;;;;;4.81;100.00;99516.16;4994101;28;20041;-79
2023/11/10 04:33:22;;;;;;;6.45;1.98;;;;;;;4.73;100.00;99518.63;4992563;28;20031;-83
2023/11/10 04:35:48;;;;;;;7.45;1.90;;;;;;;4.70;100.00;99508.34;4993064;28;20030;-80
2023/11/10 04:38:13;;;;;;;5.38;2.00;;;;;;;4.67;100.00;99516.53;4994327;28;20030;-81
2023/11/10 04:40:40;;;;;;;4.82;2.05;;;;;;;4.65;100.00;99523.72;4993881;28;20060;-80
2023/11/10 04:43:05;;;;;;;17.35;2.33;;;;;;;4.68;100.00;99511.13;4992905;28;20427;-81
2023/11/10 04:45:31;;;;;;;4.93;2.60;;;;;;;4.63;100.00;99521.22;4994008;28;20034;-81
2023/11/10 04:47:57;;;;;;;10.05;2.55;;;;;;;4.54;100.00;99509.69;4994014;28;20109;-81
2023/11/10 04:50:22;;;;;;;8.80;2.38;;;;;;;4.55;100.00;99516.63;4993983;28;20381;-80
2023/11/10 04:52:50;;;;;;;9.40;2.03;;;;;;;4.52;100.00;99514.28;4993747;28;20039;-84
2023/11/10 04:55:16;;;;;;;10.75;2.40;;;;;;;4.50;100.00;99516.19;4993714;28;20145;-79
2023/11/10 04:57:41;;;;;;;9.93;2.67;;;;;;;4.51;100.00;99515.22;4994112;28;20496;-79
2023/11/10 05:00:08;;;;;;;5.55;2.38;;;;;;;4.49;100.00;99505.78;4994422;28;20579;-82
2023/11/10 05:02:33;;;;;;;12.93;2.33;;;;;;;4.47;100.00;99508.53;4993710;28;20038;-82
2023/11/10 05:05:02;;;;;;;10.63;3.00;;;;;;;4.51;100.00;99506.47;4993674;28;20041;-79
2023/11/10 05:07:28;;;;;;;14.88;3.20;;;;;;;4.50;100.00;99505.66;4992289;28;20451;-91
2023/11/10 05:09:53;;;;;;;15.00;3.42;;;;;;;4.50;100.00;99510.91;4976151;28;20034;-82
2023/11/10 05:12:20;;;;;;;11.45;3.67;;;;;;;4.48;100.00;99510.22;4993262;28;20108;-83
2023/11/10 05:14:45;;;;;;;9.48;3.80;;;;;;;4.51;100.00;99511.75;4992025;28;20026;-80
2023/11/10 05:17:11;;;;;;;11.35;3.70;;;;;;;4.52;100.00;99508.16;4993428;28;20038;-82
2023/11/10 05:19:36;;;;;;;11.30;3.33;;;;;;;4.53;100.00;99505.38;4994080;28;20038;-82
2023/11/10 05:22:02;;;;;;;12.00;3.42;;;;;;;4.54;100.00;99506.22;4993470;28;20112;-82
2023/11/10 05:24:29;;;;;;;11.88;3.58;;;;;;;4.62;100.00;99521.38;4993197;28;20022;-79
2023/11/10 05:26:59;;;;;;;11.13;3.53;;;;;;;4.70;100.00;99524.16;4992865;28;20558;-82
2023/11/10 05:29:24;;;;;;;8.07;2.90;;;;;;;4.77;100.00;99520.84;4992909;28;20105;-81
2023/11/10 05:31:53;;;;;;;9.70;3.30;;;;;;;4.84;100.00;99522.97;4991771;28;20113;-80
2023/11/10 05:34:18;;;;;;;8.90;3.00;;;;;;;4.90;100.00;99531.16;4993190;28;20117;-84
2023/11/10 05:36:44;;;;;;;9.50;2.80;;;;;;;4.98;100.00;99524.38;4991830;28;20134;-84
2023/11/10 05:39:10;;;;;;;13.93;3.08;;;;;;;5.02;100.00;99536.34;4993054;28;20030;-80
2023/11/10 05:41:36;;;;;;;12.15;2.90;;;;;;;5.05;100.00;99533.44;4993195;28;20045;-81
2023/11/10 05:44:01;;;;;;;8.52;2.70;;;;;;;5.05;100.00;99523.72;4992884;28;20035;-82
2023/11/10 05:46:27;;;;;;;16.80;3.17;;;;;;;5.07;100.00;99529.66;4990994;28;20042;-81
2023/11/10 05:48:52;;;;;;;12.93;2.50;;;;;;;5.09;100.00;99514.56;4992501;28;20080;-82
2023/11/10 05:51:17;;;;;;;8.32;2.60;;;;;;;5.11;100.00;99519.69;4991269;28;20117;-84
2023/11/10 05:53:43;;;;;;;16.67;2.50;;;;;;;5.12;100.00;99522.19;4992339;28;20041;-87
2023/11/10 05:56:09;;;;;;;12.65;2.65;;;;;;;5.15;100.00;99510.56;4990979;28;20497;-85
2023/11/10 05:58:35;;;;;;;8.73;2.80;;;;;;;5.16;100.00;99506.09;4992624;28;20072;-87
2023/11/10 06:01:00;;;;;;;6.10;2.55;;;;;;;5.17;100.00;99508.59;4991254;28;20088;-84
2023/11/10 06:03:27;;;;;;;12.77;2.72;;;;;;;5.13;100.00;99517.75;4992327;28;20552;-86
2023/11/10 06:05:53;;;;;;;14.18;2.65;;;;;;;5.08;100.00;99498.88;4975149;28;20193;-83
2023/11/10 06:08:20;;;;;;;11.65;2.45;;;;;;;5.06;100.00;99503.44;4992787;28;20490;-82
2023/11/10 06:10:47;;;;;;;12.13;2.22;;;;;;;5.02;100.00;99515.25;4992520;28;20026;-85
2023/11/10 06:13:13;;;;;;;10.20;2.20;;;;;;;5.00;100.00;99515.38;4992294;28;20041;-85
2023/11/10 06:15:41;;;;;;;13.43;2.35;;;;;;;4.99;100.00;99513.72;4992568;28;20128;-83
2023/11/10 06:18:06;;;;;;;9.73;2.33;;;;;;;5.00;100.00;99512.75;4991305;28;20325;-82
2023/11/10 06:20:32;;;;;;;13.18;2.58;;;;;;;5.04;100.00;99511.47;4992434;28;20030;-81
2023/11/10 06:22:57;;;;;;;13.45;2.83;;;;;;;5.05;100.00;99501.78;4992331;28;20430;-82
2023/11/10 06:25:24;;;;;;;16.95;2.30;;;;;;;5.07;100.00;99510.38;4991992;28;20061;-82
2023/11/10 06:27:51;;;;;;;11.80;2.75;;;;;;;5.07;100.00;99508.56;4992432;28;20030;-82
2023/11/10 06:30:16;;;;;;;17.73;2.90;;;;;;;5.06;100.00;99503.44;4992325;28;20416;-82
2023/11/10 06:32:42;;;;;;;12.65;2.30;;;;;;;5.05;100.00;99501.78;4990857;28;20100;-86
2023/11/10 06:35:09;;;;;;;9.90;2.17;;;;;;;5.07;100.00;99513.03;4992208;28;20359;-85
2023/11/10 06:37:35;;;;;;;14.25;2.40;;;;;;;5.10;100.00;99524.13;4992170;28;20037;-81
2023/11/10 06:40:01;;;;;;;12.18;2.50;;;;;;;5.12;100.00;99534.56;4992695;28;20469;-85
2023/11/10 06:42:28;;;;;;;7.18;2.10;;;;;;;5.12;100.00;99539.84;4990185;28;20535;-84
2023/11/10 06:44:53;;;;;;;12.10;3.15;;;;;;;5.16;100.00;99549.13;4992103;28;20037;-91
2023/11/10 06:47:19;;;;;;;6.25;2.10;;;;;;;5.17;100.00;99558.69;4990161;28;20022;-85
2023/11/10 06:49:44;;;;;;;9.57;2.10;;;;;;;5.19;100.00;99556.75;4992083;28;20454;-80
2023/11/10 06:52:11;;;;;;;6.97;2.20;;;;;;;5.18;100.00;99560.38;4992177;28;20446;-83
2023/11/10 06:54:36;;;;;;;5.10;2.00;;;;;;;5.19;100.00;99556.75;4992165;28;20411;-81
2023/11/10 06:57:02;;;;;;;10.63;2.72;;;;;;;5.20;100.00;99566.34;4991751;28;20053;-82
2023/11/10 06:59:28;;;;;;;6.57;2.33;;;;;;;5.18;100.00;99547.19;4991442;28;20117;-83
2023/11/10 07:01:54;;;;;;;9.98;2.65;;;;;;;5.20;100.00;99549.69;4991367;28;20022;-86
2023/11/10 07:04:21;;;;;;;7.70;2.70;;;;;;;5.20;100.00;99554.97;4991715;28;20034;-87
2023/11/10 07:06:47;;;;;;;6.35;3.00;;;;;;;5.19;100.00;99543.56;4991554;28;20041;-84
2023/11/10 07:09:12;;;;;;;10.25;2.83;;;;;;;5.20;100.00;99565.53;4991441;28;20026;-82
2023/11/10 07:11:41;;;;;;;8.70;2.75;;;;;;;5.19;100.00;99546.22;4991433;28;20031;-83
2023/11/10 07:14:07;;;;;;;10.63;3.50;;;;;;;5.21;100.00;99551.34;4990240;28;20026;-88
2023/11/10 07:16:33;;;;;;;11.73;3.30;;;;;;;5.19;100.00;99551.47;4991154;28;20358;-84
2023/11/10 07:18:59;;;;;;;10.68;3.17;;;;;;;5.20;100.00;99549.69;4991506;28;20053;-84
2023/11/10 07:21:29;;;;;;;15.40;3.78;;;;;;;5.19;100.00;99555.94;4991416;28;20208;-83
2023/11/10 07:23:54;;;;;;;9.95;3.97;;;;;;;5.20;100.00;99560.25;4991643;28;20026;-81
2023/11/10 07:26:20;;;;;;;6.88;2.88;;;;;;;5.18;100.00;99560.38;4991379;28;20038;-79
2023/11/10 07:28:46;;;;;;;6.80;2.90;;;;;;;5.19;100.00;99548.03;4997795;28;20462;-81
2023/11/10 07:31:14;;;;;;;9.90;3.22;;;;;;;5.21;100.00;99560.09;4973926;28;20085;-82
2023/11/10 07:33:40;;;;;;;12.82;3.15;;;;;;;5.19;100.00;99555.94;4992727;28;20129;-80
2023/11/10 07:36:06;;;;;;;13.82;3.70;;;;;;;5.19;100.00;99562.03;4991621;28;20101;-83
2023/11/10 07:38:31;;;;;;;9.18;3.03;;;;;;;5.19;100.00;99562.03;4991515;28;20041;-81
2023/11/10 07:40:57;;;;;;;13.10;3.28;;;;;;;5.18;100.00;99560.38;4991131;28;20073;-84
2023/11/10 07:43:22;;;;;;;9.68;2.60;;;;;;;5.20;100.00;99561.06;4991210;28;20481;-83
2023/11/10 07:45:47;;;;;;;20.67;3.75;;;;;;;5.19;100.00;99548.03;4991148;28;20323;-83
2023/11/10 07:48:15;;;;;;;9.77;3.28;;;;;;;5.20;100.00;99552.34;4989512;28;20117;-82
2023/11/10 07:50:41;;;;;;;9.93;2.30;;;;;;;5.18;100.00;99544.56;4990957;28;20030;-83
2023/11/10 07:53:07;;;;;;;10.85;2.45;;;;;;;5.17;100.00;99545.53;4989769;28;20036;-83
2023/11/10 07:55:33;;;;;;;7.00;2.17;;;;;;;5.18;100.00;99541.94;4991110;28;20445;-82
2023/11/10 07:57:58;;;;;;;7.03;2.20;;;;;;;5.18;100.00;99547.19;4989996;28;20105;-81
2023/11/10 08:00:24;;;;;;;7.40;2.15;;;;;;;5.18;100.00;99546.34;4989871;28;20427;-80
2023/11/10 08:02:52;;;;;;;9.48;2.17;;;;;;;5.19;100.00;99543.56;4990969;28;20436;-79
2023/11/10 08:05:19;;;;;;;6.38;2.28;;;;;;;5.20;100.00;99549.69;4991154;28;20038;-82
2023/11/10 08:07:44;;;;;;;4.28;1.73;;;;;;;5.21;100.00;99546.06;4991410;28;20039;-78
2023/11/10 08:10:10;;;;;;;7.53;1.95;;;;;;;5.21;100.00;99548.72;4992248;28;20038;-80
2023/11/10 08:12:36;;;;;;;9.52;2.22;;;;;;;5.21;100.00;99543.44;4994719;28;20026;-80
2023/11/10 08:15:02;;;;;;;7.68;1.60;;;;;;;5.20;100.00;99550.53;4994569;28;20459;-84
2023/11/10 08:17:29;;;;;;;9.32;2.08;;;;;;;5.18;100.00;99544.56;4994694;28;20027;-84
2023/11/10 08:19:54;;;;;;;7.15;1.90;;;;;;;5.17;100.00;99539.44;4993854;28;20346;-83
2023/11/10 08:22:20;;;;;;;12.48;1.92;;;;;;;5.19;100.00;99545.38;4994494;28;20022;-82
2023/11/10 08:24:46;;;;;;;3.28;1.42;;;;;;;5.18;100.00;99536.66;4994780;28;20464;-82
2023/11/10 08:27:11;;;;;;;6.72;1.60;;;;;;;5.19;100.00;99542.75;4993861;28;20058;-89
2023/11/10 08:29:37;;;;;;;6.35;1.77;;;;;;;5.20;100.00;99525.97;4994480;28;20529;-83
2023/11/10 08:32:02;;;;;;;14.00;2.05;;;;;;;5.20;100.00;99518.88;4994440;28;20035;-83
2023/11/10 08:34:28;;;;;;;9.57;1.45;;;;;;;5.19;100.00;99519.00;4994547;28;20034;-86
2023/11/10 08:36:53;;;;;;;14.93;2.83;;;;;;;5.23;100.00;99531.78;4992948;28;20328;-86
2023/11/10 08:39:20;;;;;;;4.13;1.40;;;;;;;5.24;100.00;99520.28;4976797;28;20030;-84
2023/11/10 08:41:49;;;;;;;8.50;2.47;;;;;;;5.27;100.00;99522.63;5009518;28;20030;-81
2023/11/10 08:44:18;;;;;;;7.20;2.00;;;;;;;5.30;100.00;99524.19;4994031;28;20034;-82
2023/11/10 08:46:44;;;;;;;5.22;1.70;;;;;;;5.29;100.00;99522.50;4994391;28;20056;-83
2023/11/10 08:49:13;;;;;;;7.13;1.95;;;;;;;5.33;100.00;99528.31;4994244;28;20026;-89
2023/11/10 08:51:40;;;;;;;8.10;1.98;;;;;;;5.33;100.00;99533.59;4992653;28;20034;-83
2023/11/10 08:54:05;;;;;;;7.97;2.33;;;;;;;5.32;100.00;99531.94;4994321;28;20088;-89
2023/11/10 08:56:31;;;;;;;9.32;2.63;;;;;;;5.30;100.00;99525.00;4994560;28;20031;-82
2023/11/10 08:58:57;;;;;;;7.03;2.40;;;;;;;5.33;100.00;99528.31;4994353;28;20092;-83
2023/11/10 09:01:22;;;;;;;6.40;2.20;;;;;;;5.35;100.00;99519.31;4992475;28;20339;-80
2023/11/10 09:03:48;;;;;;;10.45;2.58;;;;;;;5.37;100.00;99527.91;4993499;28;20046;-89
2023/11/10 09:06:14;;;;;;;9.15;2.72;;;;;;;5.40;100.00;99525.00;4993578;28;20427;-82
2023/11/10 09:08:41;;;;;;;5.70;2.40;;;;;;;5.43;100.00;99526.53;4993425;28;20143;-78
2023/11/10 09:11:06;;;;;;;6.40;2.63;;;;;;;5.44;100.00;99525.56;4993482;28;20037;-83
2023/11/10 09:13:32;;;;;;;5.03;2.50;;;;;;;5.47;100.00;99515.56;4993259;28;20034;-83
2023/11/10 09:15:58;;;;;;;9.65;3.15;;;;;;;5.51;100.00;99516.13;4993887;28;20065;-81
2023/11/10 09:18:24;;;;;;;12.25;2.90;;;;;;;5.53;100.00;99510.72;4993362;28;20065;-81
2023/11/10 09:20:49;;;;;;;7.28;3.03;;;;;;;5.56;100.00;99510.44;4993196;28;20061;-79
2023/11/10 09:23:15;;;;;;;8.73;3.28;;;;;;;5.59;100.00;99510.16;4992891;28;20339;-79
2023/11/10 09:25:40;;;;;;;8.73;3.58;;;;;;;5.62;100.00;99513.34;4992834;28;20356;-80
2023/11/10 09:28:06;;;;;;;12.18;3.50;;;;;;;5.64;100.00;99506.13;4993342;28;20089;-83
2023/11/10 09:30:33;;;;;;;9.32;3.95;;;;;;;5.68;100.00;99508.50;4993170;28;20527;-80
2023/11/10 09:32:59;;;;;;;10.20;4.50;;;;;;;5.74;100.00;99490.28;4992993;28;20026;-83
2023/11/10 09:35:26;;;;;;;8.82;4.47;;;;;;;5.82;100.00;99489.56;4993127;28;20078;-79
2023/11/10 09:37:51;;;;;;;8.30;4.43;;;;;;;5.92;100.00;99490.38;4993136;28;20610;-83
2023/11/10 09:40:19;;;;;;;7.10;3.97;;;;;;;5.95;100.00;99487.44;4992679;28;20487;-84
2023/11/10 09:42:45;;;;;;;10.85;4.57;;;;;;;6.00;100.00;99484.41;4992764;28;20032;-85
2023/11/10 09:45:14;;;;;;;9.45;4.35;;;;;;;5.99;100.00;99486.22;4992678;28;20506;-84
2023/11/10 09:47:44;;;;;;;11.25;4.65;;;;;;;6.06;100.00;99480.38;4991151;28;20033;-79
2023/11/10 09:50:13;;;;;;;11.23;4.23;;;;;;;6.13;100.00;99478.84;4992854;28;20076;-83
2023/11/10 09:52:40;;;;;;;10.63;4.60;;;;;;;6.17;100.00;99472.28;4992184;28;20105;-81
2023/11/10 09:55:06;;;;;;;11.63;4.32;;;;;;;6.26;100.00;99473.25;4992481;28;20415;-79
2023/11/10 09:57:32;;;;;;;8.98;3.90;;;;;;;6.29;100.00;99478.22;4992632;28;20120;-80
2023/11/10 09:59:58;;;;;;;8.55;4.40;;;;;;;6.37;100.00;99486.25;4992385;28;20312;-82
2023/11/10 10:02:23;;;;;;;10.38;4.10;;;;;;;6.35;100.00;99483.75;4992005;28;20028;-83
2023/11/10 10:04:49;;;;;;;8.10;3.95;;;;;;;6.34;100.00;99492.69;4990893;28;20050;-82
2023/11/10 10:07:16;;;;;;;9.77;4.00;;;;;;;6.28;100.00;99484.47;4992285;28;20351;-81
2023/11/10 10:09:42;;;;;;;7.20;3.50;;;;;;;6.27;100.00;99488.09;4992232;28;20034;-79
2023/11/10 10:12:08;;;;;;;12.70;3.40;;;;;;;6.25;100.00;99488.25;4992274;28;20034;-83
2023/11/10 10:14:38;;;;;;;14.48;4.00;;;;;;;6.22;100.00;99485.88;4992420;28;20045;-81
2023/11/10 10:17:03;;;;;;;10.73;3.97;;;;;;;6.21;100.00;99481.59;4991364;28;20037;-79
2023/11/10 10:19:35;;;;;;;11.70;3.65;;;;;;;6.22;100.00;99487.69;4991139;28;20030;-78
2023/11/10 10:22:00;;;;;;;10.68;3.30;;;;;;;6.21;100.00;99493.94;4991972;28;20320;-81
2023/11/10 10:24:26;;;;;;;11.88;3.42;;;;;;;6.22;100.00;99477.13;4991844;28;20037;-78
2023/11/10 10:26:51;;;;;;;12.65;3.42;;;;;;;6.23;100.00;99484.09;4991996;28;20137;-80
2023/11/10 10:29:20;;;;;;;6.68;3.00;;;;;;;6.27;100.00;99481.03;4990532;28;20030;-80
2023/11/10 10:31:46;;;;;;;9.48;3.30;;;;;;;6.31;100.00;99485.00;4991910;28;20022;-79
2023/11/10 10:34:12;;;;;;;8.45;3.20;;;;;;;6.33;100.00;99485.72;4991411;28;20053;-78
2023/11/10 10:36:38;;;;;;;15.75;3.53;;;;;;;6.34;100.00;99479.47;4990387;28;20351;-80
2023/11/10 10:39:10;;;;;;;9.52;3.30;;;;;;;6.37;100.00;99480.16;4991687;28;20060;-79
2023/11/10 10:41:37;;;;;;;7.57;2.70;;;;;;;6.37;100.00;99480.97;4991975;28;20030;-80
2023/11/10 10:44:04;;;;;;;9.27;2.90;;;;;;;6.37;100.00;99491.53;4991901;28;20072;-81
2023/11/10 10:46:33;;;;;;;5.10;2.65;;;;;;;6.40;100.00;99485.13;4991242;28;20022;-78
2023/11/10 10:48:59;;;;;;;7.85;2.50;;;;;;;6.40;100.00;99478.03;4991162;28;20054;-79
2023/11/10 10:51:27;;;;;;;10.57;2.60;;;;;;;6.41;100.00;99477.06;4991275;28;20054;-81
2023/11/10 10:53:53;;;;;;;10.45;2.90;;;;;;;6.43;100.00;99476.91;4991950;28;20026;-77
2023/11/10 10:56:20;;;;;;;8.25;2.92;;;;;;;6.44;100.00;99486.53;4990918;28;20037;-78
2023/11/10 10:58:45;;;;;;;11.07;2.75;;;;;;;6.44;100.00;99482.06;4990259;28;20474;-78
2023/11/10 11:01:13;;;;;;;9.30;2.75;;;;;;;6.50;100.00;99484.13;4991102;28;20064;-77
2023/11/10 11:04:00;;;;;;;11.05;2.63;;;;;;;6.59;100.00;99482.41;4991464;28;20050;-79
2023/11/10 11:06:29;;;;;;;7.72;2.70;;;;;;;6.64;100.00;99474.03;4991670;28;20117;-77
2023/11/10 11:09:44;;;;;;;9.93;2.63;;;;;;;6.68;100.00;99478.88;4990929;28;20030;-81
2023/11/10 11:12:28;;;;;;;10.57;2.85;;;;;;;6.74;100.00;99487.22;4967848;28;20382;-79
2023/11/10 11:14:56;;;;;;;6.25;2.67;;;;;;;6.76;100.00;99486.06;4991152;28;20415;-78
2023/11/10 11:17:30;;;;;;;7.82;2.22;;;;;;;6.71;100.00;99483.03;4991201;28;20058;-79
2023/11/10 11:19:56;;;;;;;12.45;2.70;;;;;;;6.65;100.00;99489.75;4989619;28;20402;-79
2023/11/10 11:22:22;;;;;;;7.57;2.45;;;;;;;6.59;100.00;99490.34;4989917;28;20354;-83
2023/11/10 11:24:47;;;;;;;5.60;2.20;;;;;;;6.52;100.00;99490.09;4989444;28;20034;-81
2023/11/10 11:27:22;;;;;;;8.05;2.40;;;;;;;6.50;100.00;99489.41;4991233;28;20225;-87